Boca Raton, FL (33427)

6:45 AM EST on February 27, 2015 (GMT -0500)
Boca Surf Cam . Com | Change Station
CLOSE
Current Station
Personal Weather Station
Location: Boca Raton, FL
Elevation: 26 ft
Nearby Weather Stations

Elev 26 ft 26.35 °N, 80.07 °W | Updated 5 minutes ago

Overcast
Overcast
66.2 °F
Feels Like 66.2 °F
N
5.8
Wind Variable Wind from SW

Today
High -- | Low -- °F
--% Chance of Precip.
Yesterday
High -- | Low -- °F
Precip. -- in
6:46 AM 6:20 PM
Waxing Gibbous, 68% visible
Pressure 30.04 in
Visibility 8.0 miles
Clouds Overcast 1400 ft
Dew Point 62 °F
Humidity 86%
Rainfall 0.05 in
Snow Depth Not available.
UV 0 out of 12
Pollen 8.70 out of 12
Air Quality Not available.
Flu Activity Not available.
METAR KPMP 271053Z 32005KT 8SM -RA OVC014 19/17 A3004 RMK AO2 RAE0956B32 SLP172 P0000 T01940172

More Conditions Fewer Conditions

Pressure 30.04 in
Visibility 8.0 miles
Clouds Overcast 1400 ft
Dew Point 62 °F
Humidity 86%
Rainfall 0.05 in
Snow Depth Not available.
UV 0 out of 12
Pollen 8.70 out of 12
Air Quality Not available.
Flu Activity Not available.
METAR KPMP 271053Z 32005KT 8SM -RA OVC014 19/17 A3004 RMK AO2 RAE0956B32 SLP172 P0000 T01940172

More Conditions Fewer Conditions

10-Day Weather Forecast

Almanac

Astronomy

Feb. 27, 2015 Rise Set
Actual Time
Civil Twilight
Nautical Twilight
Astronomical Twilight
Moon
Length of Visible Light
Length of Day
Tomorrow will be .
, % of the Moon is Illuminated

Today's Extremes

State Highs State Lows

Community

WunderPhotos

Upload Photos

1,800,656 photos uploaded!

WunderBlogs® & News

Nearby

Air Quality

  Air Quality AQ Index Pollutant
Not available.

Snow Depth

Station Depth Elevation

Earthquake Activity

City Distance Mag. Time & Date
Minimum magnitude displayed is 2.5.

Coastal Water Temperatures

Place Temperature

Nearby Weather Stations